^^
Caerphilly Weather Station Historical Data
 
Daily Summary for October 17, 2019 Units:  Metric    English   Both
Daily Weekly Monthly Yearly Custom
  Current: High: Low: Average:
Temperature: 3.7 °C 7.0 °C 3.3 °C 5 °C
Dew Point: 3.2 °C 6.1 °C 2.8 °C 4.4 °C
Humidity: 97% 97% 94% 96%
Wind Speed: 0.0km/h 1.6km/h 0.0km/h 0.3km/h
Wind Gust: 3.2km/h 4.8km/h - -
WindCalm - - SSE
Pressure: 1004.4 hPa 1005.6 hPa 1004.2 hPa -
Precipitation: 0.4 mm      
Historical Graphs
 
 
Tabular Data for October 17, 2019
Time Temperature Dew Point Pressure Wind Wind Speed Wind Gust Humidity Rainfall Rate (Hourly) solar
00:00 7.0 °C 6.1 °C 1005.5 hPa Calm     94% 0.0 mm 0.00 W/m2
00:05 6.8 °C 5.9 °C 1005.5 hPa Calm     94% 0.2 mm 0.00 W/m2
00:10 6.7 °C 5.8 °C 1005.5 hPa ENE 1.6 km/h 3.2 km/h 94% 0.0 mm 0.00 W/m2
00:15 6.7 °C 5.9 °C 1005.5 hPa ENE 1.6 km/h 1.6 km/h 95% 0.0 mm 0.00 W/m2
00:20 6.6 °C 5.8 °C 1005.5 hPa Calm   1.6 km/h 95% 0.0 mm 0.00 W/m2
00:25 6.5 °C 5.8 °C 1005.5 hPa Calm   1.6 km/h 95% 0.0 mm 0.00 W/m2
00:30 6.4 °C 5.7 °C 1005.5 hPa Calm     95% 0.0 mm 0.00 W/m2
00:35 6.3 °C 5.6 °C 1005.6 hPa Calm   1.6 km/h 95% 0.0 mm 0.00 W/m2
00:40 6.3 °C 5.6 °C 1005.6 hPa Calm   1.6 km/h 95% 0.0 mm 0.00 W/m2
00:45 6.3 °C 5.6 °C 1005.6 hPa Calm   1.6 km/h 95% 0.0 mm 0.00 W/m2
00:50 6.2 °C 5.5 °C 1005.6 hPa Calm     95% 0.0 mm 0.00 W/m2
00:55 6.3 °C 5.5 °C 1005.6 hPa Calm     95% 0.0 mm 0.00 W/m2
01:00 6.3 °C 5.6 °C 1005.6 hPa Calm     95% 0.0 mm 0.00 W/m2
01:15 6.4 °C 5.8 °C 1005.6 hPa Calm   1.6 km/h 96% 0.0 mm 0.00 W/m2
01:20 6.5 °C 5.9 °C 1005.6 hPa Calm   1.6 km/h 96% 0.0 mm 0.00 W/m2
01:25 6.6 °C 5.9 °C 1005.6 hPa Calm     96% 0.0 mm 0.00 W/m2
01:30 6.6 °C 5.9 °C 1005.5 hPa Calm   1.6 km/h 96% 0.0 mm 0.00 W/m2
01:35 6.6 °C 5.9 °C 1005.5 hPa ENE 1.6 km/h 3.2 km/h 96% 0.0 mm 0.00 W/m2
01:40 6.6 °C 6.0 °C 1005.5 hPa ENE 1.6 km/h 3.2 km/h 96% 0.0 mm 0.00 W/m2
01:45 6.6 °C 6.0 °C 1005.5 hPa East 1.6 km/h 3.2 km/h 96% 0.0 mm 0.00 W/m2
01:50 6.6 °C 6.1 °C 1005.4 hPa Calm   3.2 km/h 96% 0.0 mm 0.00 W/m2
01:55 6.6 °C 6.1 °C 1005.4 hPa ESE 1.6 km/h 1.6 km/h 96% 0.0 mm 0.00 W/m2
02:00 6.6 °C 6.1 °C 1005.4 hPa Calm   3.2 km/h 96% 0.0 mm 0.00 W/m2
02:05 6.6 °C 6.0 °C 1005.4 hPa ESE 1.6 km/h 3.2 km/h 96% 0.0 mm 0.00 W/m2
02:10 6.6 °C 6.0 °C 1005.4 hPa Calm   1.6 km/h 96% 0.0 mm 0.00 W/m2
02:15 6.5 °C 5.9 °C 1005.3 hPa Calm   1.6 km/h 96% 0.2 mm 0.00 W/m2
02:20 6.4 °C 5.8 °C 1005.5 hPa Calm     96% 0.0 mm 0.00 W/m2
02:25 6.3 °C 5.6 °C 1005.5 hPa Calm     95% 0.0 mm 0.00 W/m2
02:30 6.2 °C 5.6 °C 1005.5 hPa Calm     96% 0.0 mm 0.00 W/m2
02:35 6.2 °C 5.6 °C 1005.5 hPa Calm   3.2 km/h 96% 0.0 mm 0.00 W/m2
02:40 6.1 °C 5.3 °C 1005.5 hPa Calm   1.6 km/h 95% 0.0 mm 0.00 W/m2
02:45 5.9 °C 5.2 °C 1005.5 hPa Calm   3.2 km/h 95% 0.0 mm 0.00 W/m2
02:50 5.8 °C 5.2 °C 1005.5 hPa Calm   3.2 km/h 96% 0.0 mm 0.00 W/m2
02:55 5.7 °C 5.1 °C 1005.5 hPa Calm   1.6 km/h 96% 0.0 mm 0.00 W/m2
03:00 5.7 °C 5.1 °C 1005.5 hPa Calm   1.6 km/h 96% 0.0 mm 0.00 W/m2
03:05 5.6 °C 5.0 °C 1005.4 hPa Calm   1.6 km/h 96% 0.0 mm 0.00 W/m2
03:10 5.5 °C 4.9 °C 1005.4 hPa Calm     96% 0.0 mm 0.00 W/m2
03:15 5.3 °C 4.6 °C 1005.4 hPa Calm     95% 0.0 mm 0.00 W/m2
03:20 5.3 °C 4.7 °C 1005.3 hPa Calm     96% 0.0 mm 0.00 W/m2
03:25 5.2 °C 4.6 °C 1005.3 hPa ESE 1.6 km/h 3.2 km/h 96% 0.0 mm 0.00 W/m2
03:30 5.1 °C 4.5 °C 1005.3 hPa ESE 1.6 km/h 3.2 km/h 96% 0.0 mm 0.00 W/m2
03:35 5.1 °C 4.5 °C 1005.3 hPa Calm   1.6 km/h 96% 0.0 mm 0.00 W/m2
03:40 5.1 °C 4.4 °C 1005.2 hPa Calm     96% 0.0 mm 0.00 W/m2
03:45 4.9 °C 4.4 °C 1005.2 hPa Calm   3.2 km/h 96% 0.0 mm 0.00 W/m2
03:50 4.9 °C 4.3 °C 1005.2 hPa NNE 1.6 km/h 3.2 km/h 96% 0.0 mm 0.00 W/m2
03:55 4.9 °C 4.3 °C 1005.2 hPa Calm   1.6 km/h 96% 0.0 mm 0.00 W/m2
04:00 4.8 °C 4.3 °C 1005.2 hPa Calm     96% 0.0 mm 0.00 W/m2
04:05 4.8 °C 4.2 °C 1005.2 hPa Calm     96% 0.0 mm 0.00 W/m2
04:10 4.7 °C 4.1 °C 1005.2 hPa Calm   1.6 km/h 96% 0.0 mm 0.00 W/m2
04:15 4.6 °C 4.1 °C 1005.1 hPa Calm     96% 0.0 mm 0.00 W/m2
04:20 4.5 °C 3.9 °C 1005.2 hPa NW 1.6 km/h 1.6 km/h 96% 0.0 mm 0.00 W/m2
04:25 4.4 °C 3.9 °C 1005.2 hPa Calm   3.2 km/h 96% 0.0 mm 0.00 W/m2
04:30 4.4 °C 3.8 °C 1005.1 hPa Calm   1.6 km/h 96% 0.0 mm 0.00 W/m2
04:35 4.3 °C 3.7 °C 1005.2 hPa Calm   1.6 km/h 96% 0.0 mm 0.00 W/m2
04:40 4.2 °C 3.7 °C 1005.1 hPa Calm   1.6 km/h 96% 0.0 mm 0.00 W/m2
04:45 4.2 °C 3.6 °C 1005.1 hPa Calm     96% 0.0 mm 0.00 W/m2
04:50 4.2 °C 3.6 °C 1005.1 hPa Calm   1.6 km/h 96% 0.0 mm 0.00 W/m2
04:55 4.1 °C 3.6 °C 1005.0 hPa Calm     96% 0.0 mm 0.00 W/m2
05:00 4.1 °C 3.5 °C 1005.0 hPa Calm   1.6 km/h 96% 0.0 mm 0.00 W/m2
05:05 4.1 °C 3.5 °C 1005.0 hPa Calm     96% 0.0 mm 0.00 W/m2
05:10 4.0 °C 3.4 °C 1005.0 hPa Calm   1.6 km/h 96% 0.0 mm 0.00 W/m2
05:15 3.9 °C 3.3 °C 1004.9 hPa Calm   1.6 km/h 96% 0.0 mm 0.00 W/m2
05:20 3.8 °C 3.3 °C 1004.9 hPa NW 1.6 km/h 3.2 km/h 96% 0.0 mm 0.00 W/m2
05:25 3.8 °C 3.2 °C 1004.8 hPa Calm   3.2 km/h 96% 0.0 mm 0.00 W/m2
05:30 3.7 °C 3.2 °C 1004.8 hPa Calm   1.6 km/h 96% 0.0 mm 0.00 W/m2
05:35 3.7 °C 3.1 °C 1004.7 hPa Calm   1.6 km/h 96% 0.0 mm 0.00 W/m2
05:40 3.7 °C 3.1 °C 1004.8 hPa Calm   1.6 km/h 96% 0.0 mm 0.00 W/m2
05:45 3.6 °C 3.1 °C 1004.7 hPa Calm   3.2 km/h 96% 0.0 mm 0.00 W/m2
05:50 3.6 °C 3.1 °C 1004.6 hPa Calm   1.6 km/h 96% 0.0 mm 0.00 W/m2
05:55 3.6 °C 3.0 °C 1004.5 hPa NW 1.6 km/h 4.8 km/h 96% 0.0 mm 0.00 W/m2
06:00 3.6 °C 3.0 °C 1004.5 hPa Calm   4.8 km/h 96% 0.0 mm 0.00 W/m2
06:05 3.6 °C 3.0 °C 1004.6 hPa NW 1.6 km/h 3.2 km/h 96% 0.0 mm 0.00 W/m2
06:10 3.6 °C 3.0 °C 1004.6 hPa Calm   3.2 km/h 96% 0.0 mm 0.00 W/m2
06:15 3.6 °C 3.1 °C 1004.6 hPa North 1.6 km/h 1.6 km/h 97% 0.0 mm 0.00 W/m2
06:20 3.6 °C 3.1 °C 1004.6 hPa Calm   1.6 km/h 97% 0.0 mm 0.00 W/m2
06:25 3.7 °C 3.2 °C 1004.5 hPa Calm   3.2 km/h 97% 0.0 mm 0.00 W/m2
06:30 3.6 °C 3.2 °C 1004.5 hPa Calm     97% 0.0 mm 0.00 W/m2
06:35 3.6 °C 3.0 °C 1004.4 hPa Calm   1.6 km/h 96% 0.0 mm 0.00 W/m2
06:40 3.5 °C 2.9 °C 1004.4 hPa Calm   1.6 km/h 96% 0.0 mm 0.00 W/m2
06:45 3.4 °C 2.9 °C 1004.4 hPa Calm     96% 0.0 mm 0.00 W/m2
06:50 3.4 °C 3.0 °C 1004.4 hPa Calm   1.6 km/h 97% 0.0 mm 0.00 W/m2
06:55 3.4 °C 2.8 °C 1004.4 hPa Calm     96% 0.0 mm 0.00 W/m2
07:00 3.3 °C 2.8 °C 1004.3 hPa Calm     96% 0.0 mm 0.00 W/m2
07:05 3.3 °C 2.9 °C 1004.4 hPa Calm   3.2 km/h 97% 0.0 mm 0.00 W/m2
07:10 3.3 °C 2.9 °C 1004.3 hPa Calm   1.6 km/h 97% 0.0 mm 0.00 W/m2
07:15 3.4 °C 2.9 °C 1004.3 hPa Calm     97% 0.0 mm 0.00 W/m2
07:20 3.4 °C 3.0 °C 1004.3 hPa Calm   3.2 km/h 97% 0.0 mm 0.00 W/m2
07:25 3.4 °C 3.0 °C 1004.4 hPa Calm   3.2 km/h 97% 0.0 mm 0.00 W/m2
07:30 3.6 °C 3.1 °C 1004.2 hPa Calm   3.2 km/h 97% 0.0 mm 0.00 W/m2
07:35 3.6 °C 3.2 °C 1004.4 hPa SSW 1.6 km/h 1.6 km/h 97% 0.0 mm 0.00 W/m2
07:40 3.7 °C 3.2 °C 1004.4 hPa Calm   3.2 km/h 97% 0.0 mm 0.00 W/m2
Caerphilly,Wales
Compliments of Weather Underground - 2 mb